Terminal Aerodrome Forecast
Issued by NWS

Home | Current Version | Previous Version | Text Only | Print | Product List | Glossary On
Versions: 1 2 3 4 5 6 7 8 9 10 11 12 13 14 15 16
000
FTUS45 KPSR 050539
TAFBLH
TAF
KBLH 050539Z 0506/0606 18010KT P6SM VCTS FEW060CB BKN100 OVC120
      TEMPO 0506/0508 VRB15G25KT -TSRA BKN060CB
     FM050900 18008KT P6SM SCT100 BKN200
     FM052000 18012G22KT P6SM FEW080 SCT150=

USA.gov is the U.S. government's official web portal to all federal, state and local government web resources and services.